Logan Peak - 24 Hour Table
Date & TimeSolar
Radiation
(W/m²)
Wind
Speed
(mph)
Wind
Direction
(degrees)
Air
Temperature
(°F)
Relative
Humidity
(%)
Barometeric
Pressure
(inHg)
Max
Wind
Speed
(mph)
2022/08/19 06:00 2 17.9 62 57.7 36 30.02 23.3
2022/08/19 05:00 0 18.1 57 58.5 35 30.02 25.7
2022/08/19 04:00 0 15.1 31 59.0 37 30.02 19.5
2022/08/19 03:00 0 15.4 31 58.6 41 30.03 23.7
2022/08/19 02:00 0 20.0 61 59.3 41 30.04 32.9
2022/08/19 01:00 0 10.0 70 61.9 40 30.04 25.3
2022/08/19 00:00 0 10.7 67 63.7 33 30.06 13.6
2022/08/18 23:00 0 12.7 46 63.4 31 30.05 14.5
2022/08/18 22:00 0 12.7 41 63.4 32 30.06 16.1
2022/08/18 21:00 0 9.7 20 63.7 31 30.06 13.4
2022/08/18 20:00 6 7.1 341 63.2 34 30.06 11.0
2022/08/18 19:00 75 8.6 348 64.2 32 30.06 13.9
2022/08/18 18:00 106 8.3 335 64.0 32 30.06 10.5
2022/08/18 17:00 222 7.2 326 64.7 34 30.07 10.7
2022/08/18 16:00 254 4.9 332 65.7 33 30.07 7.8
2022/08/18 15:00 361 12.6 123 63.5 37 30.09 29.8
2022/08/18 14:00 203 13.9 167 62.6 50 30.10 27.3
2022/08/18 13:00 693 5.1 19 66.4 39 30.11 11.9
2022/08/18 12:00 608 10.4 43 62.8 42 30.11 17.2
2022/08/18 11:00 657 8.9 77 64.5 37 30.12 16.6
2022/08/18 10:00 544 10.9 110 62.8 34 30.12 18.6
2022/08/18 09:00 618 12.0 111 62.5 34 30.12 17.9
2022/08/18 08:00 134 17.5 112 60.3 37 30.11 22.4
2022/08/18 07:00 52 17.5 103 59.3 38 30.11 23.5